This is the latest recevied weather packets stored in our database for station/object W4CPD. If no packets are shown the sender has not sent any weather packets the latest 10 day(s).
| Time | Temp. | Humidity | Pressure | Rain* | Wind** | Luminosity | Snow |
|---|---|---|---|---|---|---|---|
| 1777610729 | 20.56° C | 91% | 1012.9 hPa | 0 mm | - | - | - |
| 1777608035 | 21.11° C | 91% | 1013.4 hPa | 0 mm | - | - | - |
| 1777606812 | 21.67° C | 90% | 1013.5 hPa | 0 mm | - | - | - |
| 1777605921 | 21.67° C | 90% | 1013.5 hPa | 0 mm | - | - | - |
| 1777603531 | 22.22° C | 88% | 1013.8 hPa | 0 mm | - | - | - |
| 1777603213 | 22.22° C | 88% | 1013.9 hPa | 0 mm | - | - | - |
| 1777601113 | 22.22° C | 88% | 1013.7 hPa | 0 mm | - | - | - |
| 1777600513 | 22.22° C | 87% | 1013.4 hPa | 0 mm | - | - | - |
| 1777598412 | 22.78° C | 85% | 1013.2 hPa | 0 mm | - | - | - |
| 1777595429 | 23.89° C | 80% | 1012.6 hPa | 0 mm | - | - | - |
| 1777595114 | 23.89° C | 81% | 1012.5 hPa | 0 mm | - | - | - |
| 1777594529 | 23.89° C | 80% | 1012.5 hPa | 0 mm | - | - | - |
| 1777594214 | 23.89° C | 79% | 1012.5 hPa | 0 mm | - | - | - |
| 1777593916 | 24.44° C | 79% | 1012.4 hPa | 0 mm | - | - | - |
| 1777593634 | 24.44° C | 79% | 1012.2 hPa | 0 mm | - | - | - |
| 1777592731 | 24.44° C | 79% | 1011.9 hPa | 0 mm | - | - | - |
| 1777591516 | 25° C | 77% | 1012.1 hPa | 0 mm | - | - | - |
| 1777591216 | 25° C | 77% | 1012.1 hPa | 0 mm | - | - | - |
| 1777590615 | 25° C | 76% | 1012 hPa | 0 mm | - | - | - |
| 1777589413 | 25.56° C | 76% | 1011.5 hPa | 0 mm | - | - | - |
| 1777588513 | 26.11° C | 75% | 1011.4 hPa | 0 mm | - | - | - |
| 1777585213 | 25.56° C | 78% | 1011.1 hPa | 0 mm | - | - | - |
| 1777584628 | 25.56° C | 77% | 1011 hPa | 0 mm | - | - | - |
| 1777583414 | 26.11° C | 75% | 1011.7 hPa | 0 mm | - | - | - |
| 1777578333 | 25° C | 80% | 1013 hPa | 0 mm | - | - | - |
* Rain latest hour (hover to see other rain measurements)
** Current wind speed in m/s (hover to see current wind gust speed)